sensor_id;sensor_type;location;lat;lon;timestamp;temperature;humidity
53498;DHT22;39382;47.168;16.008;2024-01-10T00:01:18;-1.00;71.30
53498;DHT22;39382;47.168;16.008;2024-01-10T00:03:43;-1.10;71.60
53498;DHT22;39382;47.168;16.008;2024-01-10T00:06:10;-1.10;72.30
53498;DHT22;39382;47.168;16.008;2024-01-10T00:08:36;-1.10;72.60
53498;DHT22;39382;47.168;16.008;2024-01-10T00:11:01;-1.10;71.60
53498;DHT22;39382;47.168;16.008;2024-01-10T00:13:27;-1.10;71.60
53498;DHT22;39382;47.168;16.008;2024-01-10T00:15:53;-1.20;69.70
53498;DHT22;39382;47.168;16.008;2024-01-10T00:18:21;-1.10;71.40
53498;DHT22;39382;47.168;16.008;2024-01-10T00:20:46;-1.10;72.30
53498;DHT22;39382;47.168;16.008;2024-01-10T00:23:12;-1.20;73.40
53498;DHT22;39382;47.168;16.008;2024-01-10T00:25:38;-1.20;74.80
53498;DHT22;39382;47.168;16.008;2024-01-10T00:28:05;-1.30;75.10
53498;DHT22;39382;47.168;16.008;2024-01-10T00:30:30;-1.30;75.20
53498;DHT22;39382;47.168;16.008;2024-01-10T00:32:56;-1.30;75.40
53498;DHT22;39382;47.168;16.008;2024-01-10T00:35:22;-1.30;75.60
53498;DHT22;39382;47.168;16.008;2024-01-10T00:37:47;-1.30;76.30
53498;DHT22;39382;47.168;16.008;2024-01-10T00:40:13;-1.40;76.30
53498;DHT22;39382;47.168;16.008;2024-01-10T00:42:39;-1.30;74.40
53498;DHT22;39382;47.168;16.008;2024-01-10T00:45:05;-1.30;74.20
53498;DHT22;39382;47.168;16.008;2024-01-10T00:47:30;-1.30;75.30
53498;DHT22;39382;47.168;16.008;2024-01-10T00:49:56;-1.30;75.00
53498;DHT22;39382;47.168;16.008;2024-01-10T00:52:22;-1.30;75.70
53498;DHT22;39382;47.168;16.008;2024-01-10T00:54:47;-1.20;76.10
53498;DHT22;39382;47.168;16.008;2024-01-10T00:57:13;-1.30;74.70
53498;DHT22;39382;47.168;16.008;2024-01-10T00:59:40;-1.30;74.10
53498;DHT22;39382;47.168;16.008;2024-01-10T01:02:05;-1.20;73.90
53498;DHT22;39382;47.168;16.008;2024-01-10T01:04:31;-1.30;74.00
53498;DHT22;39382;47.168;16.008;2024-01-10T01:06:57;-1.30;75.30
53498;DHT22;39382;47.168;16.008;2024-01-10T01:09:22;-1.30;76.20
53498;DHT22;39382;47.168;16.008;2024-01-10T01:11:48;-1.30;75.90
53498;DHT22;39382;47.168;16.008;2024-01-10T01:14:13;-1.40;76.20
53498;DHT22;39382;47.168;16.008;2024-01-10T01:16:39;-1.40;76.70
53498;DHT22;39382;47.168;16.008;2024-01-10T01:19:05;-1.40;76.90
53498;DHT22;39382;47.168;16.008;2024-01-10T01:21:30;-1.40;77.30
53498;DHT22;39382;47.168;16.008;2024-01-10T01:23:56;-1.40;76.60
53498;DHT22;39382;47.168;16.008;2024-01-10T01:26:22;-1.40;75.30
53498;DHT22;39382;47.168;16.008;2024-01-10T01:28:47;-1.40;75.20
53498;DHT22;39382;47.168;16.008;2024-01-10T01:31:13;-1.40;75.50
53498;DHT22;39382;47.168;16.008;2024-01-10T01:33:38;-1.50;75.70
53498;DHT22;39382;47.168;16.008;2024-01-10T01:36:05;-1.50;75.30
53498;DHT22;39382;47.168;16.008;2024-01-10T01:38:31;-1.60;75.90
53498;DHT22;39382;47.168;16.008;2024-01-10T01:40:57;-1.60;76.50
53498;DHT22;39382;47.168;16.008;2024-01-10T01:43:24;-1.60;77.30
53498;DHT22;39382;47.168;16.008;2024-01-10T01:45:54;-1.70;77.80
53498;DHT22;39382;47.168;16.008;2024-01-10T01:48:21;-1.70;77.70
53498;DHT22;39382;47.168;16.008;2024-01-10T01:50:50;-1.70;77.60
53498;DHT22;39382;47.168;16.008;2024-01-10T01:53:16;-1.70;77.80
53498;DHT22;39382;47.168;16.008;2024-01-10T01:55:44;-1.80;78.00
53498;DHT22;39382;47.168;16.008;2024-01-10T01:58:11;-1.90;78.70
53498;DHT22;39382;47.168;16.008;2024-01-10T02:00:37;-1.90;78.90
53498;DHT22;39382;47.168;16.008;2024-01-10T02:03:05;-2.00;79.10
53498;DHT22;39382;47.168;16.008;2024-01-10T02:05:32;-2.00;79.80
53498;DHT22;39382;47.168;16.008;2024-01-10T02:07:58;-2.10;81.40
53498;DHT22;39382;47.168;16.008;2024-01-10T02:10:23;-2.20;82.30
53498;DHT22;39382;47.168;16.008;2024-01-10T02:12:49;-2.10;83.30
53498;DHT22;39382;47.168;16.008;2024-01-10T02:15:15;-2.20;84.10
53498;DHT22;39382;47.168;16.008;2024-01-10T02:17:42;-2.30;84.50
53498;DHT22;39382;47.168;16.008;2024-01-10T02:20:12;-2.40;84.80
53498;DHT22;39382;47.168;16.008;2024-01-10T02:22:38;-2.40;85.50
53498;DHT22;39382;47.168;16.008;2024-01-10T02:25:08;-2.50;86.40
53498;DHT22;39382;47.168;16.008;2024-01-10T02:27:35;-2.60;86.90
53498;DHT22;39382;47.168;16.008;2024-01-10T02:30:03;-2.70;87.20
53498;DHT22;39382;47.168;16.008;2024-01-10T02:32:28;-2.80;87.20
53498;DHT22;39382;47.168;16.008;2024-01-10T02:34:54;-2.80;87.40
53498;DHT22;39382;47.168;16.008;2024-01-10T02:37:20;-2.80;87.10
53498;DHT22;39382;47.168;16.008;2024-01-10T02:39:45;-2.90;87.00
53498;DHT22;39382;47.168;16.008;2024-01-10T02:42:11;-2.90;87.20
53498;DHT22;39382;47.168;16.008;2024-01-10T02:44:37;-2.90;88.60
53498;DHT22;39382;47.168;16.008;2024-01-10T02:47:02;-2.90;89.80
53498;DHT22;39382;47.168;16.008;2024-01-10T02:49:28;-3.00;90.30
53498;DHT22;39382;47.168;16.008;2024-01-10T02:51:54;-3.10;90.70
53498;DHT22;39382;47.168;16.008;2024-01-10T02:54:20;-3.10;91.20
53498;DHT22;39382;47.168;16.008;2024-01-10T02:56:45;-3.10;91.80
53498;DHT22;39382;47.168;16.008;2024-01-10T02:59:11;-3.20;92.10
53498;DHT22;39382;47.168;16.008;2024-01-10T03:01:37;-3.30;92.10
53498;DHT22;39382;47.168;16.008;2024-01-10T03:04:02;-3.40;92.20
53498;DHT22;39382;47.168;16.008;2024-01-10T03:06:28;-3.50;92.40
53498;DHT22;39382;47.168;16.008;2024-01-10T03:08:55;-3.60;92.90
53498;DHT22;39382;47.168;16.008;2024-01-10T03:11:20;-3.60;93.00
53498;DHT22;39382;47.168;16.008;2024-01-10T03:13:47;-3.60;93.20
53498;DHT22;39382;47.168;16.008;2024-01-10T03:16:13;-3.60;93.40
53498;DHT22;39382;47.168;16.008;2024-01-10T03:18:39;-3.70;93.20
53498;DHT22;39382;47.168;16.008;2024-01-10T03:21:05;-3.70;93.80
53498;DHT22;39382;47.168;16.008;2024-01-10T03:23:30;-3.80;94.40
53498;DHT22;39382;47.168;16.008;2024-01-10T03:25:57;-3.80;94.90
53498;DHT22;39382;47.168;16.008;2024-01-10T03:28:23;-3.90;95.30
53498;DHT22;39382;47.168;16.008;2024-01-10T03:30:49;-3.90;95.80
53498;DHT22;39382;47.168;16.008;2024-01-10T03:33:15;-4.00;96.10
53498;DHT22;39382;47.168;16.008;2024-01-10T03:35:41;-4.00;96.70
53498;DHT22;39382;47.168;16.008;2024-01-10T03:38:07;-4.00;97.30
53498;DHT22;39382;47.168;16.008;2024-01-10T03:40:33;-4.00;97.50
53498;DHT22;39382;47.168;16.008;2024-01-10T03:42:59;-4.10;97.70
53498;DHT22;39382;47.168;16.008;2024-01-10T03:45:24;-4.10;98.40
53498;DHT22;39382;47.168;16.008;2024-01-10T03:47:50;-4.10;98.80
53498;DHT22;39382;47.168;16.008;2024-01-10T03:50:20;-4.10;99.10
53498;DHT22;39382;47.168;16.008;2024-01-10T03:52:46;-4.10;99.40
53498;DHT22;39382;47.168;16.008;2024-01-10T03:55:12;-4.10;99.40
53498;DHT22;39382;47.168;16.008;2024-01-10T03:57:39;-4.20;99.60
53498;DHT22;39382;47.168;16.008;2024-01-10T04:00:06;-4.30;99.90
53498;DHT22;39382;47.168;16.008;2024-01-10T04:02:37;-4.30;99.90
53498;DHT22;39382;47.168;16.008;2024-01-10T04:05:07;-4.30;99.90
53498;DHT22;39382;47.168;16.008;2024-01-10T04:07:33;-4.40;99.90
53498;DHT22;39382;47.168;16.008;2024-01-10T04:09:58;-4.40;99.90
53498;DHT22;39382;47.168;16.008;2024-01-10T04:12:24;-4.40;99.90
53498;DHT22;39382;47.168;16.008;2024-01-10T04:14:50;-4.50;99.90
53498;DHT22;39382;47.168;16.008;2024-01-10T04:17:15;-4.50;99.90
53498;DHT22;39382;47.168;16.008;2024-01-10T04:19:41;-4.50;99.90
53498;DHT22;39382;47.168;16.008;2024-01-10T04:22:06;-4.50;99.90
53498;DHT22;39382;47.168;16.008;2024-01-10T04:24:32;-4.60;99.90
53498;DHT22;39382;47.168;16.008;2024-01-10T04:26:58;-4.70;99.90
53498;DHT22;39382;47.168;16.008;2024-01-10T04:29:23;-4.70;99.90
53498;DHT22;39382;47.168;16.008;2024-01-10T04:31:50;-4.80;99.90
53498;DHT22;39382;47.168;16.008;2024-01-10T04:34:15;-4.80;99.90
53498;DHT22;39382;47.168;16.008;2024-01-10T04:36:41;-4.80;99.90
53498;DHT22;39382;47.168;16.008;2024-01-10T04:39:06;-4.80;99.90
53498;DHT22;39382;47.168;16.008;2024-01-10T04:41:32;-4.80;99.90
53498;DHT22;39382;47.168;16.008;2024-01-10T04:43:58;-4.80;99.90
53498;DHT22;39382;47.168;16.008;2024-01-10T04:46:23;-4.80;99.90
53498;DHT22;39382;47.168;16.008;2024-01-10T04:48:49;-4.80;99.90
53498;DHT22;39382;47.168;16.008;2024-01-10T04:51:14;-4.90;99.90
53498;DHT22;39382;47.168;16.008;2024-01-10T04:53:40;-4.80;99.90
53498;DHT22;39382;47.168;16.008;2024-01-10T04:56:06;-4.80;99.90
53498;DHT22;39382;47.168;16.008;2024-01-10T04:58:31;-4.80;99.90
53498;DHT22;39382;47.168;16.008;2024-01-10T05:00:58;-4.80;99.90
53498;DHT22;39382;47.168;16.008;2024-01-10T05:03:24;-4.90;99.90
53498;DHT22;39382;47.168;16.008;2024-01-10T05:05:49;-4.90;99.90
53498;DHT22;39382;47.168;16.008;2024-01-10T05:08:15;-4.90;99.90
53498;DHT22;39382;47.168;16.008;2024-01-10T05:10:41;-5.00;99.90
53498;DHT22;39382;47.168;16.008;2024-01-10T05:13:06;-4.90;99.90
53498;DHT22;39382;47.168;16.008;2024-01-10T05:15:32;-4.90;99.90
53498;DHT22;39382;47.168;16.008;2024-01-10T05:17:58;-4.90;99.90
53498;DHT22;39382;47.168;16.008;2024-01-10T05:20:23;-4.90;99.90
53498;DHT22;39382;47.168;16.008;2024-01-10T05:22:49;-4.90;99.90
53498;DHT22;39382;47.168;16.008;2024-01-10T05:25:15;-4.90;99.90
53498;DHT22;39382;47.168;16.008;2024-01-10T05:27:43;-5.00;99.90
53498;DHT22;39382;47.168;16.008;2024-01-10T05:30:09;-5.10;99.90
53498;DHT22;39382;47.168;16.008;2024-01-10T05:32:38;-5.10;99.90
53498;DHT22;39382;47.168;16.008;2024-01-10T05:35:04;-5.10;99.90
53498;DHT22;39382;47.168;16.008;2024-01-10T05:37:30;-5.10;99.90
53498;DHT22;39382;47.168;16.008;2024-01-10T05:39:56;-5.20;99.90
53498;DHT22;39382;47.168;16.008;2024-01-10T05:42:21;-5.10;99.90
53498;DHT22;39382;47.168;16.008;2024-01-10T05:44:47;-5.10;99.90
53498;DHT22;39382;47.168;16.008;2024-01-10T05:47:13;-5.20;99.90
53498;DHT22;39382;47.168;16.008;2024-01-10T05:49:39;-5.30;99.90
53498;DHT22;39382;47.168;16.008;2024-01-10T05:52:04;-5.30;99.90
53498;DHT22;39382;47.168;16.008;2024-01-10T05:54:30;-5.30;99.90
53498;DHT22;39382;47.168;16.008;2024-01-10T05:56:56;-5.20;99.90
53498;DHT22;39382;47.168;16.008;2024-01-10T05:59:21;-5.20;99.90
53498;DHT22;39382;47.168;16.008;2024-01-10T06:01:47;-5.20;99.90
53498;DHT22;39382;47.168;16.008;2024-01-10T06:04:12;-5.20;99.90
53498;DHT22;39382;47.168;16.008;2024-01-10T06:06:38;-5.20;99.90
53498;DHT22;39382;47.168;16.008;2024-01-10T06:09:04;-5.20;99.90
53498;DHT22;39382;47.168;16.008;2024-01-10T06:11:30;-5.20;99.90
53498;DHT22;39382;47.168;16.008;2024-01-10T06:13:55;-5.20;99.90
53498;DHT22;39382;47.168;16.008;2024-01-10T06:16:23;-5.30;99.90
53498;DHT22;39382;47.168;16.008;2024-01-10T06:18:48;-5.30;99.90
53498;DHT22;39382;47.168;16.008;2024-01-10T06:21:14;-5.30;99.90
53498;DHT22;39382;47.168;16.008;2024-01-10T06:23:40;-5.30;99.90
53498;DHT22;39382;47.168;16.008;2024-01-10T06:26:05;-5.30;99.90
53498;DHT22;39382;47.168;16.008;2024-01-10T06:28:32;-5.30;99.90
53498;DHT22;39382;47.168;16.008;2024-01-10T06:30:57;-5.30;99.90
53498;DHT22;39382;47.168;16.008;2024-01-10T06:33:24;-5.40;99.90
53498;DHT22;39382;47.168;16.008;2024-01-10T06:35:49;-5.40;99.90
53498;DHT22;39382;47.168;16.008;2024-01-10T06:38:15;-5.40;99.90
53498;DHT22;39382;47.168;16.008;2024-01-10T06:40:42;-5.30;99.90
53498;DHT22;39382;47.168;16.008;2024-01-10T06:43:10;-5.30;99.90
53498;DHT22;39382;47.168;16.008;2024-01-10T06:45:35;-5.30;99.90
53498;DHT22;39382;47.168;16.008;2024-01-10T06:48:01;-5.20;99.90
53498;DHT22;39382;47.168;16.008;2024-01-10T06:50:26;-5.20;99.90
53498;DHT22;39382;47.168;16.008;2024-01-10T06:52:52;-3.50;99.90
53498;DHT22;39382;47.168;16.008;2024-01-10T06:55:18;-4.00;99.90
53498;DHT22;39382;47.168;16.008;2024-01-10T06:57:44;-4.20;99.90
53498;DHT22;39382;47.168;16.008;2024-01-10T07:00:10;-4.50;99.90
53498;DHT22;39382;47.168;16.008;2024-01-10T07:02:37;-4.80;99.90
53498;DHT22;39382;47.168;16.008;2024-01-10T07:05:07;-4.80;99.90
53498;DHT22;39382;47.168;16.008;2024-01-10T07:07:32;-4.90;99.90
53498;DHT22;39382;47.168;16.008;2024-01-10T07:10:01;-5.00;99.90
53498;DHT22;39382;47.168;16.008;2024-01-10T07:12:33;-5.00;99.90
53498;DHT22;39382;47.168;16.008;2024-01-10T07:14:59;-5.10;99.90
53498;DHT22;39382;47.168;16.008;2024-01-10T07:17:25;-5.10;99.90
53498;DHT22;39382;47.168;16.008;2024-01-10T07:19:50;-5.00;99.90
53498;DHT22;39382;47.168;16.008;2024-01-10T07:22:16;-5.10;99.90
53498;DHT22;39382;47.168;16.008;2024-01-10T07:24:43;-5.00;99.90
53498;DHT22;39382;47.168;16.008;2024-01-10T07:27:09;-5.00;99.90
53498;DHT22;39382;47.168;16.008;2024-01-10T07:29:35;-5.00;99.90
53498;DHT22;39382;47.168;16.008;2024-01-10T07:32:01;-4.90;99.90
53498;DHT22;39382;47.168;16.008;2024-01-10T07:34:26;-4.90;99.90
53498;DHT22;39382;47.168;16.008;2024-01-10T07:36:52;-4.90;99.90
53498;DHT22;39382;47.168;16.008;2024-01-10T07:39:19;-4.80;99.90
53498;DHT22;39382;47.168;16.008;2024-01-10T07:41:45;-4.80;99.90
53498;DHT22;39382;47.168;16.008;2024-01-10T07:44:11;-4.70;99.90
53498;DHT22;39382;47.168;16.008;2024-01-10T07:46:37;-4.60;99.90
53498;DHT22;39382;47.168;16.008;2024-01-10T07:49:06;-4.50;99.90
53498;DHT22;39382;47.168;16.008;2024-01-10T07:51:32;-4.40;99.90
53498;DHT22;39382;47.168;16.008;2024-01-10T07:53:58;-4.40;99.90
53498;DHT22;39382;47.168;16.008;2024-01-10T07:56:25;-4.30;99.90
53498;DHT22;39382;47.168;16.008;2024-01-10T07:58:50;-4.20;99.90
53498;DHT22;39382;47.168;16.008;2024-01-10T08:01:17;-4.20;99.90
53498;DHT22;39382;47.168;16.008;2024-01-10T08:03:43;-4.10;99.90
53498;DHT22;39382;47.168;16.008;2024-01-10T08:06:09;-4.00;99.90
53498;DHT22;39382;47.168;16.008;2024-01-10T08:08:35;-3.90;99.90
53498;DHT22;39382;47.168;16.008;2024-01-10T08:11:02;-3.80;99.90
53498;DHT22;39382;47.168;16.008;2024-01-10T08:13:28;-3.80;99.90
53498;DHT22;39382;47.168;16.008;2024-01-10T08:15:54;-3.70;99.90
53498;DHT22;39382;47.168;16.008;2024-01-10T08:18:19;-3.70;99.90
53498;DHT22;39382;47.168;16.008;2024-01-10T08:20:45;-3.60;99.90
53498;DHT22;39382;47.168;16.008;2024-01-10T08:23:11;-3.60;99.90
53498;DHT22;39382;47.168;16.008;2024-01-10T08:25:36;-3.50;99.90
53498;DHT22;39382;47.168;16.008;2024-01-10T08:28:03;-3.40;99.90
53498;DHT22;39382;47.168;16.008;2024-01-10T08:30:29;-3.30;99.90
53498;DHT22;39382;47.168;16.008;2024-01-10T08:32:55;-3.20;99.90
53498;DHT22;39382;47.168;16.008;2024-01-10T08:35:20;-3.20;99.90
53498;DHT22;39382;47.168;16.008;2024-01-10T08:37:46;-3.20;99.90
53498;DHT22;39382;47.168;16.008;2024-01-10T08:40:12;-3.10;99.90
53498;DHT22;39382;47.168;16.008;2024-01-10T08:42:42;-3.10;99.90
53498;DHT22;39382;47.168;16.008;2024-01-10T08:45:09;-3.00;99.90
53498;DHT22;39382;47.168;16.008;2024-01-10T08:47:36;-2.90;99.90
53498;DHT22;39382;47.168;16.008;2024-01-10T08:50:03;-2.80;99.90
53498;DHT22;39382;47.168;16.008;2024-01-10T08:52:31;-2.80;99.90
53498;DHT22;39382;47.168;16.008;2024-01-10T08:54:57;-2.70;99.90
53498;DHT22;39382;47.168;16.008;2024-01-10T08:57:23;-2.60;99.50
53498;DHT22;39382;47.168;16.008;2024-01-10T08:59:48;-2.60;99.50
53498;DHT22;39382;47.168;16.008;2024-01-10T09:02:14;-2.50;99.80
53498;DHT22;39382;47.168;16.008;2024-01-10T09:04:40;-2.40;99.90
53498;DHT22;39382;47.168;16.008;2024-01-10T09:07:07;-2.30;99.90
53498;DHT22;39382;47.168;16.008;2024-01-10T09:09:34;-2.10;99.90
53498;DHT22;39382;47.168;16.008;2024-01-10T09:12:00;-2.10;99.70
53498;DHT22;39382;47.168;16.008;2024-01-10T09:14:26;-1.90;99.90
53498;DHT22;39382;47.168;16.008;2024-01-10T09:16:51;-1.80;99.90
53498;DHT22;39382;47.168;16.008;2024-01-10T09:19:18;-1.70;99.90
53498;DHT22;39382;47.168;16.008;2024-01-10T09:21:43;-1.60;99.60
53498;DHT22;39382;47.168;16.008;2024-01-10T09:24:09;-1.60;99.30
53498;DHT22;39382;47.168;16.008;2024-01-10T09:26:36;-1.60;99.00
53498;DHT22;39382;47.168;16.008;2024-01-10T09:29:02;-1.50;99.20
53498;DHT22;39382;47.168;16.008;2024-01-10T09:31:28;-1.50;99.10
53498;DHT22;39382;47.168;16.008;2024-01-10T09:33:53;-1.50;99.10
53498;DHT22;39382;47.168;16.008;2024-01-10T09:36:19;-1.30;99.30
53498;DHT22;39382;47.168;16.008;2024-01-10T09:38:45;-1.40;98.30
53498;DHT22;39382;47.168;16.008;2024-01-10T09:41:11;-1.30;98.30
53498;DHT22;39382;47.168;16.008;2024-01-10T09:43:38;-1.20;98.40
53498;DHT22;39382;47.168;16.008;2024-01-10T09:46:06;-1.10;98.40
53498;DHT22;39382;47.168;16.008;2024-01-10T09:48:32;-0.90;98.20
53498;DHT22;39382;47.168;16.008;2024-01-10T09:50:59;-0.80;97.80
53498;DHT22;39382;47.168;16.008;2024-01-10T09:53:26;-0.80;97.60
53498;DHT22;39382;47.168;16.008;2024-01-10T09:55:52;-0.70;96.80
53498;DHT22;39382;47.168;16.008;2024-01-10T09:58:23;-0.80;96.20
53498;DHT22;39382;47.168;16.008;2024-01-10T10:00:52;-0.80;96.40
53498;DHT22;39382;47.168;16.008;2024-01-10T10:03:19;-0.60;95.80
53498;DHT22;39382;47.168;16.008;2024-01-10T10:05:44;-0.50;95.70
53498;DHT22;39382;47.168;16.008;2024-01-10T10:08:12;-0.30;95.40
53498;DHT22;39382;47.168;16.008;2024-01-10T10:10:40;-0.30;94.50
53498;DHT22;39382;47.168;16.008;2024-01-10T10:13:09;-0.20;94.40
53498;DHT22;39382;47.168;16.008;2024-01-10T10:15:37;0.20;94.30
53498;DHT22;39382;47.168;16.008;2024-01-10T10:18:03;-0.10;93.80
53498;DHT22;39382;47.168;16.008;2024-01-10T10:20:30;0.00;93.20
53498;DHT22;39382;47.168;16.008;2024-01-10T10:23:06;0.10;93.00
53498;DHT22;39382;47.168;16.008;2024-01-10T10:25:33;0.20;93.40
53498;DHT22;39382;47.168;16.008;2024-01-10T10:28:00;0.40;93.30
53498;DHT22;39382;47.168;16.008;2024-01-10T10:30:31;0.50;95.40
53498;DHT22;39382;47.168;16.008;2024-01-10T10:32:57;0.50;90.70
53498;DHT22;39382;47.168;16.008;2024-01-10T10:35:23;0.50;90.90
53498;DHT22;39382;47.168;16.008;2024-01-10T10:37:49;1.10;90.80
53498;DHT22;39382;47.168;16.008;2024-01-10T10:40:16;2.20;99.90
53498;DHT22;39382;47.168;16.008;2024-01-10T10:42:47;2.50;94.40
53498;DHT22;39382;47.168;16.008;2024-01-10T10:45:17;2.30;85.90
53498;DHT22;39382;47.168;16.008;2024-01-10T10:47:44;2.00;84.70
53498;DHT22;39382;47.168;16.008;2024-01-10T10:50:21;1.60;83.10
53498;DHT22;39382;47.168;16.008;2024-01-10T10:52:48;1.30;83.60
53498;DHT22;39382;47.168;16.008;2024-01-10T10:55:18;1.20;84.60
53498;DHT22;39382;47.168;16.008;2024-01-10T10:57:45;1.00;84.60
53498;DHT22;39382;47.168;16.008;2024-01-10T11:00:18;1.00;84.90
53498;DHT22;39382;47.168;16.008;2024-01-10T11:02:44;1.00;85.10
53498;DHT22;39382;47.168;16.008;2024-01-10T11:05:11;0.90;85.30
53498;DHT22;39382;47.168;16.008;2024-01-10T11:07:41;0.90;85.40
53498;DHT22;39382;47.168;16.008;2024-01-10T11:10:14;1.00;85.10
53498;DHT22;39382;47.168;16.008;2024-01-10T11:23:59;1.40;84.00
53498;DHT22;39382;47.168;16.008;2024-01-10T11:26:25;1.30;84.10
53498;DHT22;39382;47.168;16.008;2024-01-10T11:28:51;1.40;81.60
53498;DHT22;39382;47.168;16.008;2024-01-10T11:31:30;1.40;79.90
53498;DHT22;39382;47.168;16.008;2024-01-10T11:34:01;2.10;84.90
53498;DHT22;39382;47.168;16.008;2024-01-10T11:36:27;2.00;80.40
53498;DHT22;39382;47.168;16.008;2024-01-10T11:38:58;1.90;79.10
53498;DHT22;39382;47.168;16.008;2024-01-10T11:41:36;1.90;80.00
53498;DHT22;39382;47.168;16.008;2024-01-10T11:46:47;2.00;79.30
53498;DHT22;39382;47.168;16.008;2024-01-10T11:49:15;1.70;79.30
53498;DHT22;39382;47.168;16.008;2024-01-10T11:51:46;1.70;80.50
53498;DHT22;39382;47.168;16.008;2024-01-10T11:54:12;1.80;79.80
53498;DHT22;39382;47.168;16.008;2024-01-10T11:56:39;1.90;80.50
53498;DHT22;39382;47.168;16.008;2024-01-10T11:59:13;2.10;80.20
53498;DHT22;39382;47.168;16.008;2024-01-10T12:01:42;2.50;82.10
53498;DHT22;39382;47.168;16.008;2024-01-10T12:04:08;2.30;80.30
53498;DHT22;39382;47.168;16.008;2024-01-10T12:06:37;2.30;80.30
53498;DHT22;39382;47.168;16.008;2024-01-10T12:09:03;2.40;79.90
53498;DHT22;39382;47.168;16.008;2024-01-10T12:11:38;2.20;79.10
53498;DHT22;39382;47.168;16.008;2024-01-10T12:14:04;2.10;79.30
53498;DHT22;39382;47.168;16.008;2024-01-10T12:16:32;2.20;80.00
53498;DHT22;39382;47.168;16.008;2024-01-10T12:18:58;2.20;80.30
53498;DHT22;39382;47.168;16.008;2024-01-10T12:21:23;2.20;79.60
53498;DHT22;39382;47.168;16.008;2024-01-10T12:23:49;2.20;80.10
53498;DHT22;39382;47.168;16.008;2024-01-10T12:26:17;2.30;79.90
53498;DHT22;39382;47.168;16.008;2024-01-10T12:28:57;2.20;80.20
53498;DHT22;39382;47.168;16.008;2024-01-10T12:31:27;2.20;80.50
53498;DHT22;39382;47.168;16.008;2024-01-10T12:33:55;2.30;81.30
53498;DHT22;39382;47.168;16.008;2024-01-10T12:36:20;2.40;81.10
53498;DHT22;39382;47.168;16.008;2024-01-10T12:38:47;2.40;80.20
53498;DHT22;39382;47.168;16.008;2024-01-10T12:41:15;2.40;77.90
53498;DHT22;39382;47.168;16.008;2024-01-10T12:43:40;2.50;77.30
53498;DHT22;39382;47.168;16.008;2024-01-10T12:46:07;2.40;79.10
53498;DHT22;39382;47.168;16.008;2024-01-10T12:48:34;2.40;76.60
53498;DHT22;39382;47.168;16.008;2024-01-10T12:51:07;2.40;76.40
53498;DHT22;39382;47.168;16.008;2024-01-10T12:53:37;2.50;78.00
53498;DHT22;39382;47.168;16.008;2024-01-10T12:56:04;2.50;77.80
53498;DHT22;39382;47.168;16.008;2024-01-10T12:58:31;2.50;78.90
53498;DHT22;39382;47.168;16.008;2024-01-10T13:00:58;2.60;79.90
53498;DHT22;39382;47.168;16.008;2024-01-10T13:03:24;2.60;78.60
53498;DHT22;39382;47.168;16.008;2024-01-10T13:05:50;2.70;78.30
53498;DHT22;39382;47.168;16.008;2024-01-10T13:08:17;2.60;78.20
53498;DHT22;39382;47.168;16.008;2024-01-10T13:10:44;2.60;80.50
53498;DHT22;39382;47.168;16.008;2024-01-10T13:13:11;2.60;80.10
53498;DHT22;39382;47.168;16.008;2024-01-10T13:15:37;2.60;78.80
53498;DHT22;39382;47.168;16.008;2024-01-10T13:18:03;2.50;78.50
53498;DHT22;39382;47.168;16.008;2024-01-10T13:20:29;2.30;78.50
53498;DHT22;39382;47.168;16.008;2024-01-10T13:22:54;2.30;79.20
53498;DHT22;39382;47.168;16.008;2024-01-10T13:25:20;2.30;80.70
53498;DHT22;39382;47.168;16.008;2024-01-10T13:27:52;2.30;81.00
53498;DHT22;39382;47.168;16.008;2024-01-10T13:30:18;2.40;82.80
53498;DHT22;39382;47.168;16.008;2024-01-10T13:32:46;2.30;84.00
53498;DHT22;39382;47.168;16.008;2024-01-10T13:35:15;2.50;83.90
53498;DHT22;39382;47.168;16.008;2024-01-10T13:37:44;2.10;81.10
53498;DHT22;39382;47.168;16.008;2024-01-10T13:40:11;2.20;78.90
53498;DHT22;39382;47.168;16.008;2024-01-10T13:42:40;2.30;78.00
53498;DHT22;39382;47.168;16.008;2024-01-10T13:45:06;2.40;77.80
53498;DHT22;39382;47.168;16.008;2024-01-10T13:47:33;2.30;78.50
53498;DHT22;39382;47.168;16.008;2024-01-10T13:50:00;2.30;78.70
53498;DHT22;39382;47.168;16.008;2024-01-10T13:52:25;2.30;79.10
53498;DHT22;39382;47.168;16.008;2024-01-10T13:54:51;2.30;79.40
53498;DHT22;39382;47.168;16.008;2024-01-10T13:57:17;2.20;80.80
53498;DHT22;39382;47.168;16.008;2024-01-10T13:59:43;2.10;81.80
53498;DHT22;39382;47.168;16.008;2024-01-10T14:02:09;1.90;82.10
53498;DHT22;39382;47.168;16.008;2024-01-10T14:04:35;1.90;82.20
53498;DHT22;39382;47.168;16.008;2024-01-10T14:07:01;2.10;83.40
53498;DHT22;39382;47.168;16.008;2024-01-10T14:09:30;1.80;84.20
53498;DHT22;39382;47.168;16.008;2024-01-10T14:11:55;1.80;83.70
53498;DHT22;39382;47.168;16.008;2024-01-10T14:14:21;1.80;83.30
53498;DHT22;39382;47.168;16.008;2024-01-10T14:16:46;2.00;83.30
53498;DHT22;39382;47.168;16.008;2024-01-10T14:19:12;1.60;83.10
53498;DHT22;39382;47.168;16.008;2024-01-10T14:21:38;1.70;82.70
53498;DHT22;39382;47.168;16.008;2024-01-10T14:24:04;1.60;82.30
53498;DHT22;39382;47.168;16.008;2024-01-10T14:26:29;1.50;82.60
53498;DHT22;39382;47.168;16.008;2024-01-10T14:28:55;1.50;83.00
53498;DHT22;39382;47.168;16.008;2024-01-10T14:31:22;1.40;83.10
53498;DHT22;39382;47.168;16.008;2024-01-10T14:33:48;1.40;83.30
53498;DHT22;39382;47.168;16.008;2024-01-10T14:36:14;1.30;83.60
53498;DHT22;39382;47.168;16.008;2024-01-10T14:38:40;1.20;84.00
53498;DHT22;39382;47.168;16.008;2024-01-10T14:41:07;1.40;84.70
53498;DHT22;39382;47.168;16.008;2024-01-10T14:43:33;1.10;84.90
53498;DHT22;39382;47.168;16.008;2024-01-10T14:45:58;1.00;85.00
53498;DHT22;39382;47.168;16.008;2024-01-10T14:48:24;0.90;84.90
53498;DHT22;39382;47.168;16.008;2024-01-10T14:50:49;0.80;85.30
53498;DHT22;39382;47.168;16.008;2024-01-10T14:53:16;0.70;85.90
53498;DHT22;39382;47.168;16.008;2024-01-10T14:55:41;0.70;86.30
53498;DHT22;39382;47.168;16.008;2024-01-10T14:58:07;0.70;85.90
53498;DHT22;39382;47.168;16.008;2024-01-10T15:00:33;0.60;86.10
53498;DHT22;39382;47.168;16.008;2024-01-10T15:02:58;0.50;86.40
53498;DHT22;39382;47.168;16.008;2024-01-10T15:05:24;0.50;87.10
53498;DHT22;39382;47.168;16.008;2024-01-10T15:07:51;0.40;88.20
53498;DHT22;39382;47.168;16.008;2024-01-10T15:10:16;0.40;87.80
53498;DHT22;39382;47.168;16.008;2024-01-10T15:12:42;0.30;88.00
53498;DHT22;39382;47.168;16.008;2024-01-10T15:15:09;0.30;88.30
53498;DHT22;39382;47.168;16.008;2024-01-10T15:17:36;0.20;88.10
53498;DHT22;39382;47.168;16.008;2024-01-10T15:20:02;0.20;88.30
53498;DHT22;39382;47.168;16.008;2024-01-10T15:22:27;0.10;88.50
53498;DHT22;39382;47.168;16.008;2024-01-10T15:24:53;0.00;89.20
53498;DHT22;39382;47.168;16.008;2024-01-10T15:27:19;-0.10;90.10
53498;DHT22;39382;47.168;16.008;2024-01-10T15:29:44;-0.20;90.60